createdAt,value
2023-03-20T00:15:41.130Z,8.75
2023-03-20T00:45:41.085Z,8.56
2023-03-20T01:15:41.104Z,8.38
2023-03-20T01:45:41.116Z,8.5
2023-03-20T02:15:41.092Z,8.5
2023-03-20T02:45:41.075Z,8.56
2023-03-20T03:15:41.110Z,8.13
2023-03-20T03:45:41.097Z,8.13
2023-03-20T04:15:41.100Z,7.81
2023-03-20T04:45:41.125Z,7.38
2023-03-20T05:15:41.135Z,7.38
2023-03-20T05:45:41.125Z,7.56
2023-03-20T06:15:41.191Z,7.81
2023-03-20T06:45:41.124Z,8.06
2023-03-20T07:15:50.681Z,8.31
2023-03-20T07:45:41.156Z,8.69
2023-03-20T08:15:41.146Z,9.19
2023-03-20T08:45:41.190Z,9.5
2023-03-20T09:15:41.160Z,10.06
2023-03-20T09:45:41.161Z,10.81
2023-03-20T10:15:41.146Z,10.69
2023-03-20T10:45:41.151Z,10.88
2023-03-20T11:15:41.153Z,10.81
2023-03-20T11:45:41.218Z,11.81
2023-03-20T12:15:41.227Z,11.69
2023-03-20T12:45:44.204Z,12.06
2023-03-20T13:15:41.181Z,11.69
2023-03-20T13:45:41.205Z,11.81
2023-03-20T14:15:41.208Z,11.81
2023-03-20T14:45:41.220Z,11.13
2023-03-20T15:15:41.213Z,11.38
2023-03-20T15:45:41.205Z,11.31
2023-03-20T16:15:41.263Z,11.06
2023-03-20T16:45:43.654Z,10.69
2023-03-20T17:15:41.229Z,10.5
2023-03-20T17:45:41.247Z,10.31
2023-03-20T18:15:41.276Z,10.06
2023-03-20T18:45:41.244Z,9.56
2023-03-20T19:15:41.220Z,9.5
2023-03-20T19:45:41.245Z,9.25
2023-03-20T20:15:41.258Z,9.13
2023-03-20T20:45:41.430Z,8.94
2023-03-20T21:15:41.743Z,8.75
2023-03-20T22:16:31.246Z,8.25
2023-03-20T22:45:42.992Z,8.06
2023-03-20T23:15:41.305Z,8.25
2023-03-20T23:45:41.340Z,7.88
